Ohio State University Airport
KOSU : now visible

Airfield :











YOU CAN JOIN US ON...

 
LOGIN :

Register | Disclaimer

   EN    FR    IT 

 









Legend :    VFR   Marginal VFR   IFR   Intensive IFR   Very Intensive IFR
Visi :
Ceiling :
>= 8 km
>= 3000ft
5 to 8 km
1000 to 3000 ft
1500m to 5 km
500 to 1000 ft
800 to 1500m
200 to 500 ft
< 800m
< 200 ft
Symbols :   Thunderstorms  Fog  Heavy snow  Heavy precipitations  Wind > 20 kt






- Airport Elevation : 905 ft


KOSU - Ohio State University

CURRENT METAR :
  • 271853Z 32009KT 9SM OVC013 02/M02 A2987 RMK AO2 SLP124 T00171017

EXPIRED METARs :
  • 271804Z 28008KT 3SM BR OVC011 02/M01 A2988 RMK AO2 T00171011
  • 271737Z 29008KT 3SM BR OVC011 01/M02 A2989 RMK AO2 SNB26E37 P0000 T00111017
  • 271653Z 30007KT 7SM OVC012 01/M02 A2991 RMK AO2 SLP134 T00111022

TAF N/A



MET'MAP, your aeronautical weather chart ! - Copyright ORBIFLY December 2007 - Disclaimer

ORBIFLY MET'MAP TEAM :

Programming & Development : Alexandra Zaïnal
Concept & original design : Baudouin d'Aumeries
Assistance for programming : Marc-Olivier Méhu
Technical & hardware support : Manuel Goepfert

Contact : metmap@orbifly.com




SOURCES & CREDITS :

   NOAA       Earth
Advisory